sensor_id;sensor_type;location;lat;lon;timestamp;temperature;humidity
75719;DHT22;64340;48.534;-3.036;2023-05-01T00:01:27;17.90;74.90
75719;DHT22;64340;48.534;-3.036;2023-05-01T00:03:53;17.90;74.80
75719;DHT22;64340;48.534;-3.036;2023-05-01T00:06:19;17.90;74.70
75719;DHT22;64340;48.534;-3.036;2023-05-01T00:08:45;17.80;75.00
75719;DHT22;64340;48.534;-3.036;2023-05-01T00:11:10;17.80;75.30
75719;DHT22;64340;48.534;-3.036;2023-05-01T00:13:37;17.80;75.40
75719;DHT22;64340;48.534;-3.036;2023-05-01T00:16:09;17.80;75.40
75719;DHT22;64340;48.534;-3.036;2023-05-01T00:18:35;17.80;75.40
75719;DHT22;64340;48.534;-3.036;2023-05-01T00:21:01;17.80;75.30
75719;DHT22;64340;48.534;-3.036;2023-05-01T00:23:27;17.80;75.20
75719;DHT22;64340;48.534;-3.036;2023-05-01T00:25:53;17.80;75.00
75719;DHT22;64340;48.534;-3.036;2023-05-01T00:28:19;17.80;74.80
75719;DHT22;64340;48.534;-3.036;2023-05-01T00:30:45;17.80;74.90
75719;DHT22;64340;48.534;-3.036;2023-05-01T00:33:12;17.80;75.00
75719;DHT22;64340;48.534;-3.036;2023-05-01T00:35:37;17.80;74.90
75719;DHT22;64340;48.534;-3.036;2023-05-01T00:38:03;17.80;74.60
75719;DHT22;64340;48.534;-3.036;2023-05-01T00:40:29;17.80;74.80
75719;DHT22;64340;48.534;-3.036;2023-05-01T00:42:55;17.80;74.70
75719;DHT22;64340;48.534;-3.036;2023-05-01T00:45:21;17.80;74.80
75719;DHT22;64340;48.534;-3.036;2023-05-01T00:47:46;17.80;74.90
75719;DHT22;64340;48.534;-3.036;2023-05-01T00:50:12;17.80;74.70
75719;DHT22;64340;48.534;-3.036;2023-05-01T00:52:38;17.80;75.00
75719;DHT22;64340;48.534;-3.036;2023-05-01T00:55:05;17.70;74.60
75719;DHT22;64340;48.534;-3.036;2023-05-01T00:57:31;17.70;74.70
75719;DHT22;64340;48.534;-3.036;2023-05-01T00:59:57;17.70;74.80
75719;DHT22;64340;48.534;-3.036;2023-05-01T01:02:23;17.70;74.60
75719;DHT22;64340;48.534;-3.036;2023-05-01T01:04:49;17.70;74.70
75719;DHT22;64340;48.534;-3.036;2023-05-01T01:07:22;17.60;74.80
75719;DHT22;64340;48.534;-3.036;2023-05-01T01:10:34;17.60;74.70
75719;DHT22;64340;48.534;-3.036;2023-05-01T01:12:57;17.60;74.90
75719;DHT22;64340;48.534;-3.036;2023-05-01T01:15:33;17.60;75.00
75719;DHT22;64340;48.534;-3.036;2023-05-01T01:18:23;17.60;75.00
75719;DHT22;64340;48.534;-3.036;2023-05-01T01:21:14;17.60;75.20
75719;DHT22;64340;48.534;-3.036;2023-05-01T01:32:55;17.60;74.70
75719;DHT22;64340;48.534;-3.036;2023-05-01T01:35:26;17.60;74.70
75719;DHT22;64340;48.534;-3.036;2023-05-01T01:38:06;17.60;74.70
75719;DHT22;64340;48.534;-3.036;2023-05-01T01:40:35;17.60;74.70
75719;DHT22;64340;48.534;-3.036;2023-05-01T01:43:05;17.50;74.80
75719;DHT22;64340;48.534;-3.036;2023-05-01T01:45:51;17.50;74.50
75719;DHT22;64340;48.534;-3.036;2023-05-01T01:48:23;17.50;74.40
75719;DHT22;64340;48.534;-3.036;2023-05-01T01:50:51;17.50;74.40
75719;DHT22;64340;48.534;-3.036;2023-05-01T01:53:19;17.60;74.40
75719;DHT22;64340;48.534;-3.036;2023-05-01T01:55:47;17.50;74.30
75719;DHT22;64340;48.534;-3.036;2023-05-01T01:58:14;17.50;74.30
75719;DHT22;64340;48.534;-3.036;2023-05-01T02:00:43;17.50;74.30
75719;DHT22;64340;48.534;-3.036;2023-05-01T02:03:09;17.50;74.20
75719;DHT22;64340;48.534;-3.036;2023-05-01T02:05:38;17.50;74.30
75719;DHT22;64340;48.534;-3.036;2023-05-01T02:08:05;17.50;74.30
75719;DHT22;64340;48.534;-3.036;2023-05-01T02:10:33;17.50;74.40
75719;DHT22;64340;48.534;-3.036;2023-05-01T02:13:01;17.50;74.30
75719;DHT22;64340;48.534;-3.036;2023-05-01T02:15:28;17.50;74.30
75719;DHT22;64340;48.534;-3.036;2023-05-01T02:17:54;17.50;74.40
75719;DHT22;64340;48.534;-3.036;2023-05-01T02:20:21;17.50;74.50
75719;DHT22;64340;48.534;-3.036;2023-05-01T02:22:48;17.50;74.50
75719;DHT22;64340;48.534;-3.036;2023-05-01T02:25:15;17.50;74.40
75719;DHT22;64340;48.534;-3.036;2023-05-01T02:27:47;17.50;74.40
75719;DHT22;64340;48.534;-3.036;2023-05-01T02:30:15;17.50;74.50
75719;DHT22;64340;48.534;-3.036;2023-05-01T02:32:43;17.40;74.50
75719;DHT22;64340;48.534;-3.036;2023-05-01T02:35:09;17.40;74.20
75719;DHT22;64340;48.534;-3.036;2023-05-01T02:37:36;17.40;74.20
75719;DHT22;64340;48.534;-3.036;2023-05-01T02:40:03;17.50;73.70
75719;DHT22;64340;48.534;-3.036;2023-05-01T02:42:30;17.50;73.80
75719;DHT22;64340;48.534;-3.036;2023-05-01T02:45:00;17.50;73.80
75719;DHT22;64340;48.534;-3.036;2023-05-01T02:47:27;17.40;73.70
75719;DHT22;64340;48.534;-3.036;2023-05-01T02:49:55;17.40;73.80
75719;DHT22;64340;48.534;-3.036;2023-05-01T02:52:21;17.40;73.90
75719;DHT22;64340;48.534;-3.036;2023-05-01T02:54:48;17.40;74.00
75719;DHT22;64340;48.534;-3.036;2023-05-01T02:57:16;17.40;74.00
75719;DHT22;64340;48.534;-3.036;2023-05-01T02:59:42;17.40;73.80
75719;DHT22;64340;48.534;-3.036;2023-05-01T03:02:08;17.40;73.80
75719;DHT22;64340;48.534;-3.036;2023-05-01T03:04:34;17.40;74.00
75719;DHT22;64340;48.534;-3.036;2023-05-01T03:06:59;17.40;74.00
75719;DHT22;64340;48.534;-3.036;2023-05-01T03:09:26;17.40;73.70
75719;DHT22;64340;48.534;-3.036;2023-05-01T03:11:51;17.40;73.80
75719;DHT22;64340;48.534;-3.036;2023-05-01T03:14:17;17.40;73.80
75719;DHT22;64340;48.534;-3.036;2023-05-01T03:16:43;17.30;73.70
75719;DHT22;64340;48.534;-3.036;2023-05-01T03:19:09;17.30;73.90
75719;DHT22;64340;48.534;-3.036;2023-05-01T03:21:35;17.30;73.70
75719;DHT22;64340;48.534;-3.036;2023-05-01T03:24:01;17.30;73.70
75719;DHT22;64340;48.534;-3.036;2023-05-01T03:26:27;17.30;73.80
75719;DHT22;64340;48.534;-3.036;2023-05-01T03:28:54;17.30;74.00
75719;DHT22;64340;48.534;-3.036;2023-05-01T03:31:20;17.30;73.90
75719;DHT22;64340;48.534;-3.036;2023-05-01T03:33:46;17.30;73.90
75719;DHT22;64340;48.534;-3.036;2023-05-01T03:36:12;17.30;73.90
75719;DHT22;64340;48.534;-3.036;2023-05-01T03:38:38;17.30;73.80
75719;DHT22;64340;48.534;-3.036;2023-05-01T03:41:04;17.30;73.70
75719;DHT22;64340;48.534;-3.036;2023-05-01T03:43:30;17.30;73.60
75719;DHT22;64340;48.534;-3.036;2023-05-01T03:45:57;17.30;73.40
75719;DHT22;64340;48.534;-3.036;2023-05-01T03:48:23;17.30;73.40
75719;DHT22;64340;48.534;-3.036;2023-05-01T03:50:50;17.30;73.10
75719;DHT22;64340;48.534;-3.036;2023-05-01T03:53:15;17.30;73.20
75719;DHT22;64340;48.534;-3.036;2023-05-01T03:55:42;17.20;73.20
75719;DHT22;64340;48.534;-3.036;2023-05-01T03:58:09;17.20;73.30
75719;DHT22;64340;48.534;-3.036;2023-05-01T04:00:38;17.20;73.20
75719;DHT22;64340;48.534;-3.036;2023-05-01T04:03:04;17.20;73.40
75719;DHT22;64340;48.534;-3.036;2023-05-01T04:05:30;17.20;73.30
75719;DHT22;64340;48.534;-3.036;2023-05-01T04:07:56;17.20;73.40
75719;DHT22;64340;48.534;-3.036;2023-05-01T04:10:22;17.20;73.30
75719;DHT22;64340;48.534;-3.036;2023-05-01T04:12:48;17.20;73.40
75719;DHT22;64340;48.534;-3.036;2023-05-01T04:15:14;17.20;73.40
75719;DHT22;64340;48.534;-3.036;2023-05-01T04:17:40;17.20;73.30
75719;DHT22;64340;48.534;-3.036;2023-05-01T04:20:09;17.20;73.40
75719;DHT22;64340;48.534;-3.036;2023-05-01T04:22:35;17.20;73.40
75719;DHT22;64340;48.534;-3.036;2023-05-01T04:25:01;17.20;73.20
75719;DHT22;64340;48.534;-3.036;2023-05-01T04:27:27;17.20;73.20
75719;DHT22;64340;48.534;-3.036;2023-05-01T04:29:54;17.20;73.20
75719;DHT22;64340;48.534;-3.036;2023-05-01T04:32:20;17.20;73.10
75719;DHT22;64340;48.534;-3.036;2023-05-01T04:34:46;17.20;73.20
75719;DHT22;64340;48.534;-3.036;2023-05-01T04:37:11;17.20;73.10
75719;DHT22;64340;48.534;-3.036;2023-05-01T04:39:38;17.20;73.00
75719;DHT22;64340;48.534;-3.036;2023-05-01T04:42:04;17.20;73.10
75719;DHT22;64340;48.534;-3.036;2023-05-01T04:44:30;17.20;73.20
75719;DHT22;64340;48.534;-3.036;2023-05-01T04:47:02;17.20;73.20
75719;DHT22;64340;48.534;-3.036;2023-05-01T04:49:28;17.20;73.20
75719;DHT22;64340;48.534;-3.036;2023-05-01T04:51:54;17.20;73.20
75719;DHT22;64340;48.534;-3.036;2023-05-01T04:54:19;17.20;73.00
75719;DHT22;64340;48.534;-3.036;2023-05-01T04:56:45;17.20;72.90
75719;DHT22;64340;48.534;-3.036;2023-05-01T04:59:11;17.20;72.90
75719;DHT22;64340;48.534;-3.036;2023-05-01T05:01:37;17.20;72.70
75719;DHT22;64340;48.534;-3.036;2023-05-01T05:04:03;17.20;72.70
75719;DHT22;64340;48.534;-3.036;2023-05-01T05:06:28;17.20;72.70
75719;DHT22;64340;48.534;-3.036;2023-05-01T05:08:54;17.20;72.60
75719;DHT22;64340;48.534;-3.036;2023-05-01T05:11:21;17.20;72.60
75719;DHT22;64340;48.534;-3.036;2023-05-01T05:13:47;17.20;72.70
75719;DHT22;64340;48.534;-3.036;2023-05-01T05:16:13;17.20;72.80
75719;DHT22;64340;48.534;-3.036;2023-05-01T05:18:39;17.20;72.60
75719;DHT22;64340;48.534;-3.036;2023-05-01T05:21:05;17.20;72.60
75719;DHT22;64340;48.534;-3.036;2023-05-01T05:23:32;17.10;72.60
75719;DHT22;64340;48.534;-3.036;2023-05-01T05:26:01;17.10;72.60
75719;DHT22;64340;48.534;-3.036;2023-05-01T05:28:27;17.10;72.60
75719;DHT22;64340;48.534;-3.036;2023-05-01T05:30:54;17.10;72.60
75719;DHT22;64340;48.534;-3.036;2023-05-01T05:33:20;17.10;72.50
75719;DHT22;64340;48.534;-3.036;2023-05-01T05:35:47;17.10;72.50
75719;DHT22;64340;48.534;-3.036;2023-05-01T05:38:13;17.10;72.50
75719;DHT22;64340;48.534;-3.036;2023-05-01T05:40:40;17.10;72.40
75719;DHT22;64340;48.534;-3.036;2023-05-01T05:43:06;17.10;72.40
75719;DHT22;64340;48.534;-3.036;2023-05-01T05:45:35;17.10;72.30
75719;DHT22;64340;48.534;-3.036;2023-05-01T05:48:01;17.10;72.30
75719;DHT22;64340;48.534;-3.036;2023-05-01T05:50:27;17.20;72.30
75719;DHT22;64340;48.534;-3.036;2023-05-01T05:52:52;17.20;72.30
75719;DHT22;64340;48.534;-3.036;2023-05-01T05:55:18;17.20;72.20
75719;DHT22;64340;48.534;-3.036;2023-05-01T05:57:44;17.20;72.30
75719;DHT22;64340;48.534;-3.036;2023-05-01T06:00:10;17.20;72.30
75719;DHT22;64340;48.534;-3.036;2023-05-01T06:02:36;17.20;72.30
75719;DHT22;64340;48.534;-3.036;2023-05-01T06:05:02;17.20;72.10
75719;DHT22;64340;48.534;-3.036;2023-05-01T06:07:28;17.20;72.00
75719;DHT22;64340;48.534;-3.036;2023-05-01T06:09:54;17.20;71.90
75719;DHT22;64340;48.534;-3.036;2023-05-01T06:12:20;17.20;71.70
75719;DHT22;64340;48.534;-3.036;2023-05-01T06:14:46;17.20;71.70
75719;DHT22;64340;48.534;-3.036;2023-05-01T06:17:12;17.20;71.80
75719;DHT22;64340;48.534;-3.036;2023-05-01T06:19:38;17.20;71.80
75719;DHT22;64340;48.534;-3.036;2023-05-01T06:22:04;17.20;71.80
75719;DHT22;64340;48.534;-3.036;2023-05-01T06:24:32;17.10;71.70
75719;DHT22;64340;48.534;-3.036;2023-05-01T06:26:57;17.10;71.70
75719;DHT22;64340;48.534;-3.036;2023-05-01T06:29:23;17.10;71.70
75719;DHT22;64340;48.534;-3.036;2023-05-01T06:31:49;17.10;71.80
75719;DHT22;64340;48.534;-3.036;2023-05-01T06:34:15;17.20;71.70
75719;DHT22;64340;48.534;-3.036;2023-05-01T06:36:40;17.10;71.60
75719;DHT22;64340;48.534;-3.036;2023-05-01T06:39:06;17.20;71.60
75719;DHT22;64340;48.534;-3.036;2023-05-01T06:41:32;17.20;71.60
75719;DHT22;64340;48.534;-3.036;2023-05-01T06:43:58;17.20;71.40
75719;DHT22;64340;48.534;-3.036;2023-05-01T06:46:24;17.20;71.30
75719;DHT22;64340;48.534;-3.036;2023-05-01T06:48:50;17.10;70.20
75719;DHT22;64340;48.534;-3.036;2023-05-01T06:51:16;17.00;69.40
75719;DHT22;64340;48.534;-3.036;2023-05-01T06:53:42;16.80;68.90
75719;DHT22;64340;48.534;-3.036;2023-05-01T06:56:09;16.60;68.80
75719;DHT22;64340;48.534;-3.036;2023-05-01T06:58:35;16.70;69.40
75719;DHT22;64340;48.534;-3.036;2023-05-01T07:01:01;16.70;69.70
75719;DHT22;64340;48.534;-3.036;2023-05-01T07:03:27;16.80;69.80
75719;DHT22;64340;48.534;-3.036;2023-05-01T07:05:53;16.90;69.40
75719;DHT22;64340;48.534;-3.036;2023-05-01T07:08:19;16.90;68.70
75719;DHT22;64340;48.534;-3.036;2023-05-01T07:10:45;17.00;69.00
75719;DHT22;64340;48.534;-3.036;2023-05-01T07:13:11;17.00;68.30
75719;DHT22;64340;48.534;-3.036;2023-05-01T07:15:37;17.00;69.60
75719;DHT22;64340;48.534;-3.036;2023-05-01T07:18:03;16.90;68.70
75719;DHT22;64340;48.534;-3.036;2023-05-01T07:20:32;16.90;68.60
75719;DHT22;64340;48.534;-3.036;2023-05-01T07:23:00;16.80;67.50
75719;DHT22;64340;48.534;-3.036;2023-05-01T07:25:26;16.80;68.10
75719;DHT22;64340;48.534;-3.036;2023-05-01T07:27:51;16.70;68.90
75719;DHT22;64340;48.534;-3.036;2023-05-01T07:30:18;16.80;68.60
75719;DHT22;64340;48.534;-3.036;2023-05-01T07:32:44;16.90;69.00
75719;DHT22;64340;48.534;-3.036;2023-05-01T07:35:10;16.80;68.60
75719;DHT22;64340;48.534;-3.036;2023-05-01T07:37:36;16.80;68.20
75719;DHT22;64340;48.534;-3.036;2023-05-01T07:40:02;16.80;68.00
75719;DHT22;64340;48.534;-3.036;2023-05-01T07:42:31;16.80;68.00
75719;DHT22;64340;48.534;-3.036;2023-05-01T07:44:57;16.80;67.80
75719;DHT22;64340;48.534;-3.036;2023-05-01T07:47:23;16.70;67.60
75719;DHT22;64340;48.534;-3.036;2023-05-01T07:49:48;16.70;67.10
75719;DHT22;64340;48.534;-3.036;2023-05-01T07:52:14;16.70;67.20
75719;DHT22;64340;48.534;-3.036;2023-05-01T07:54:40;16.70;66.90
75719;DHT22;64340;48.534;-3.036;2023-05-01T07:57:07;16.70;67.10
75719;DHT22;64340;48.534;-3.036;2023-05-01T07:59:34;16.70;66.80
75719;DHT22;64340;48.534;-3.036;2023-05-01T08:02:00;16.80;66.60
75719;DHT22;64340;48.534;-3.036;2023-05-01T08:04:27;16.80;67.00
75719;DHT22;64340;48.534;-3.036;2023-05-01T08:06:55;16.90;67.60
75719;DHT22;64340;48.534;-3.036;2023-05-01T08:09:22;17.00;67.80
75719;DHT22;64340;48.534;-3.036;2023-05-01T08:11:48;17.00;66.90
75719;DHT22;64340;48.534;-3.036;2023-05-01T08:14:14;17.00;66.20
75719;DHT22;64340;48.534;-3.036;2023-05-01T08:16:42;17.00;65.50
75719;DHT22;64340;48.534;-3.036;2023-05-01T08:19:08;17.00;65.60
75719;DHT22;64340;48.534;-3.036;2023-05-01T08:21:35;17.00;67.10
75719;DHT22;64340;48.534;-3.036;2023-05-01T08:24:01;17.00;65.80
75719;DHT22;64340;48.534;-3.036;2023-05-01T08:26:31;17.00;65.40
75719;DHT22;64340;48.534;-3.036;2023-05-01T08:28:59;16.90;65.20
75719;DHT22;64340;48.534;-3.036;2023-05-01T08:31:25;16.90;64.80
75719;DHT22;64340;48.534;-3.036;2023-05-01T08:33:51;16.90;65.50
75719;DHT22;64340;48.534;-3.036;2023-05-01T08:36:17;17.00;66.00
75719;DHT22;64340;48.534;-3.036;2023-05-01T08:38:42;17.00;65.40
75719;DHT22;64340;48.534;-3.036;2023-05-01T08:41:08;17.00;66.90
75719;DHT22;64340;48.534;-3.036;2023-05-01T08:43:36;17.00;64.50
75719;DHT22;64340;48.534;-3.036;2023-05-01T08:46:06;17.00;65.00
75719;DHT22;64340;48.534;-3.036;2023-05-01T08:48:34;17.00;64.90
75719;DHT22;64340;48.534;-3.036;2023-05-01T08:51:02;17.10;67.00
75719;DHT22;64340;48.534;-3.036;2023-05-01T08:53:31;17.20;68.20
75719;DHT22;64340;48.534;-3.036;2023-05-01T08:55:57;17.20;65.00
75719;DHT22;64340;48.534;-3.036;2023-05-01T08:58:25;17.20;65.70
75719;DHT22;64340;48.534;-3.036;2023-05-01T09:00:53;17.20;64.60
75719;DHT22;64340;48.534;-3.036;2023-05-01T09:03:21;17.20;63.50
75719;DHT22;64340;48.534;-3.036;2023-05-01T09:05:47;17.00;63.00
75719;DHT22;64340;48.534;-3.036;2023-05-01T09:08:13;17.00;64.80
75719;DHT22;64340;48.534;-3.036;2023-05-01T09:10:44;17.00;63.50
75719;DHT22;64340;48.534;-3.036;2023-05-01T09:13:12;17.00;64.90
75719;DHT22;64340;48.534;-3.036;2023-05-01T09:15:37;17.20;65.10
75719;DHT22;64340;48.534;-3.036;2023-05-01T09:18:03;17.30;64.60
75719;DHT22;64340;48.534;-3.036;2023-05-01T09:20:30;17.30;64.70
75719;DHT22;64340;48.534;-3.036;2023-05-01T09:22:56;17.40;65.10
75719;DHT22;64340;48.534;-3.036;2023-05-01T09:25:23;17.40;65.10
75719;DHT22;64340;48.534;-3.036;2023-05-01T09:27:51;17.50;65.10
75719;DHT22;64340;48.534;-3.036;2023-05-01T09:30:37;17.50;65.40
75719;DHT22;64340;48.534;-3.036;2023-05-01T09:33:14;17.50;65.60
75719;DHT22;64340;48.534;-3.036;2023-05-01T09:35:58;17.50;65.60
75719;DHT22;64340;48.534;-3.036;2023-05-01T09:38:26;17.50;65.00
75719;DHT22;64340;48.534;-3.036;2023-05-01T09:40:53;17.50;64.80
75719;DHT22;64340;48.534;-3.036;2023-05-01T09:43:26;17.50;64.40
75719;DHT22;64340;48.534;-3.036;2023-05-01T09:46:02;17.50;64.40
75719;DHT22;64340;48.534;-3.036;2023-05-01T09:48:30;17.50;65.10
75719;DHT22;64340;48.534;-3.036;2023-05-01T09:50:56;17.60;64.90
75719;DHT22;64340;48.534;-3.036;2023-05-01T09:53:39;17.60;64.90
75719;DHT22;64340;48.534;-3.036;2023-05-01T09:56:05;17.70;64.70
75719;DHT22;64340;48.534;-3.036;2023-05-01T09:58:31;17.70;64.50
75719;DHT22;64340;48.534;-3.036;2023-05-01T10:00:57;17.70;64.60
75719;DHT22;64340;48.534;-3.036;2023-05-01T10:03:23;17.70;65.10
75719;DHT22;64340;48.534;-3.036;2023-05-01T10:05:49;17.80;64.30
75719;DHT22;64340;48.534;-3.036;2023-05-01T10:08:16;17.80;64.10
75719;DHT22;64340;48.534;-3.036;2023-05-01T10:10:42;17.80;63.80
75719;DHT22;64340;48.534;-3.036;2023-05-01T10:13:18;17.80;64.30
75719;DHT22;64340;48.534;-3.036;2023-05-01T10:15:44;18.00;64.50
75719;DHT22;64340;48.534;-3.036;2023-05-01T10:18:23;18.00;64.10
75719;DHT22;64340;48.534;-3.036;2023-05-01T10:20:50;18.00;64.30
75719;DHT22;64340;48.534;-3.036;2023-05-01T10:23:16;18.10;64.70
75719;DHT22;64340;48.534;-3.036;2023-05-01T10:25:43;18.20;64.60
75719;DHT22;64340;48.534;-3.036;2023-05-01T10:28:10;18.20;64.80
75719;DHT22;64340;48.534;-3.036;2023-05-01T10:30:38;18.20;64.90
75719;DHT22;64340;48.534;-3.036;2023-05-01T10:33:04;18.20;65.10
75719;DHT22;64340;48.534;-3.036;2023-05-01T10:35:33;18.20;65.30
75719;DHT22;64340;48.534;-3.036;2023-05-01T10:38:09;18.30;65.30
75719;DHT22;64340;48.534;-3.036;2023-05-01T10:43:30;18.40;65.00
75719;DHT22;64340;48.534;-3.036;2023-05-01T10:48:54;18.50;65.10
75719;DHT22;64340;48.534;-3.036;2023-05-01T10:51:25;18.40;65.30
75719;DHT22;64340;48.534;-3.036;2023-05-01T10:56:43;18.70;65.90
75719;DHT22;64340;48.534;-3.036;2023-05-01T10:59:09;18.80;65.40
75719;DHT22;64340;48.534;-3.036;2023-05-01T11:01:37;18.70;65.50
75719;DHT22;64340;48.534;-3.036;2023-05-01T11:09:40;18.70;66.50
75719;DHT22;64340;48.534;-3.036;2023-05-01T11:12:08;18.70;66.10
75719;DHT22;64340;48.534;-3.036;2023-05-01T11:20:07;18.70;67.10
75719;DHT22;64340;48.534;-3.036;2023-05-01T11:22:33;18.80;67.80
75719;DHT22;64340;48.534;-3.036;2023-05-01T11:25:04;18.80;67.60
75719;DHT22;64340;48.534;-3.036;2023-05-01T11:27:49;18.80;68.20
75719;DHT22;64340;48.534;-3.036;2023-05-01T11:30:15;18.90;67.80
75719;DHT22;64340;48.534;-3.036;2023-05-01T11:32:46;18.80;62.30
75719;DHT22;64340;48.534;-3.036;2023-05-01T11:35:23;18.70;61.30
75719;DHT22;64340;48.534;-3.036;2023-05-01T11:37:51;18.70;63.90
75719;DHT22;64340;48.534;-3.036;2023-05-01T11:42:45;18.80;64.00
75719;DHT22;64340;48.534;-3.036;2023-05-01T11:45:11;18.80;62.00
75719;DHT22;64340;48.534;-3.036;2023-05-01T11:47:38;18.80;62.40
75719;DHT22;64340;48.534;-3.036;2023-05-01T11:50:08;18.70;62.40
75719;DHT22;64340;48.534;-3.036;2023-05-01T11:52:50;18.70;62.50
75719;DHT22;64340;48.534;-3.036;2023-05-01T11:55:30;18.70;63.40
75719;DHT22;64340;48.534;-3.036;2023-05-01T11:57:57;18.70;62.50
75719;DHT22;64340;48.534;-3.036;2023-05-01T12:00:27;18.80;62.80
75719;DHT22;64340;48.534;-3.036;2023-05-01T12:03:02;18.80;63.50
75719;DHT22;64340;48.534;-3.036;2023-05-01T12:05:29;18.90;62.70
75719;DHT22;64340;48.534;-3.036;2023-05-01T12:10:39;18.70;59.10
75719;DHT22;64340;48.534;-3.036;2023-05-01T12:13:06;18.80;61.20
75719;DHT22;64340;48.534;-3.036;2023-05-01T12:15:37;18.90;61.40
75719;DHT22;64340;48.534;-3.036;2023-05-01T12:18:06;18.90;62.10
75719;DHT22;64340;48.534;-3.036;2023-05-01T12:20:43;19.00;63.20
75719;DHT22;64340;48.534;-3.036;2023-05-01T12:23:11;18.90;60.10
75719;DHT22;64340;48.534;-3.036;2023-05-01T12:25:38;18.90;62.50
75719;DHT22;64340;48.534;-3.036;2023-05-01T12:30:37;18.90;60.60
75719;DHT22;64340;48.534;-3.036;2023-05-01T12:33:10;18.80;62.40
75719;DHT22;64340;48.534;-3.036;2023-05-01T12:35:37;18.70;60.40
75719;DHT22;64340;48.534;-3.036;2023-05-01T12:38:18;18.70;61.30
75719;DHT22;64340;48.534;-3.036;2023-05-01T12:40:55;18.70;61.40
75719;DHT22;64340;48.534;-3.036;2023-05-01T12:43:30;18.80;63.20
75719;DHT22;64340;48.534;-3.036;2023-05-01T12:45:56;18.90;63.00
75719;DHT22;64340;48.534;-3.036;2023-05-01T12:48:22;19.00;62.20
75719;DHT22;64340;48.534;-3.036;2023-05-01T12:50:49;18.90;61.70
75719;DHT22;64340;48.534;-3.036;2023-05-01T12:53:20;18.90;62.90
75719;DHT22;64340;48.534;-3.036;2023-05-01T12:55:48;18.80;61.70
75719;DHT22;64340;48.534;-3.036;2023-05-01T12:58:14;18.80;60.10
75719;DHT22;64340;48.534;-3.036;2023-05-01T13:00:45;18.80;60.60
75719;DHT22;64340;48.534;-3.036;2023-05-01T13:03:12;18.80;59.30
75719;DHT22;64340;48.534;-3.036;2023-05-01T13:05:58;18.60;57.90
75719;DHT22;64340;48.534;-3.036;2023-05-01T13:08:37;18.60;58.90
75719;DHT22;64340;48.534;-3.036;2023-05-01T13:11:11;18.50;57.70
75719;DHT22;64340;48.534;-3.036;2023-05-01T13:13:39;18.40;58.90
75719;DHT22;64340;48.534;-3.036;2023-05-01T13:16:10;18.50;58.90
75719;DHT22;64340;48.534;-3.036;2023-05-01T13:18:52;18.50;60.00
75719;DHT22;64340;48.534;-3.036;2023-05-01T13:21:22;18.60;59.60
75719;DHT22;64340;48.534;-3.036;2023-05-01T13:23:59;18.70;58.90
75719;DHT22;64340;48.534;-3.036;2023-05-01T13:26:28;18.70;57.40
75719;DHT22;64340;48.534;-3.036;2023-05-01T13:28:56;18.70;57.10
75719;DHT22;64340;48.534;-3.036;2023-05-01T13:31:24;18.80;57.70
75719;DHT22;64340;48.534;-3.036;2023-05-01T13:33:51;18.80;58.30
75719;DHT22;64340;48.534;-3.036;2023-05-01T13:36:20;18.70;59.10
75719;DHT22;64340;48.534;-3.036;2023-05-01T13:38:50;18.70;58.60
75719;DHT22;64340;48.534;-3.036;2023-05-01T13:41:24;18.60;59.20
75719;DHT22;64340;48.534;-3.036;2023-05-01T13:43:52;18.60;59.80
75719;DHT22;64340;48.534;-3.036;2023-05-01T13:46:20;18.60;59.40
75719;DHT22;64340;48.534;-3.036;2023-05-01T13:48:47;18.60;59.90
75719;DHT22;64340;48.534;-3.036;2023-05-01T13:51:22;18.60;59.60
75719;DHT22;64340;48.534;-3.036;2023-05-01T13:53:50;18.70;60.40
75719;DHT22;64340;48.534;-3.036;2023-05-01T13:56:17;18.70;61.00
75719;DHT22;64340;48.534;-3.036;2023-05-01T13:58:43;18.60;59.60
75719;DHT22;64340;48.534;-3.036;2023-05-01T14:01:20;18.60;59.90
75719;DHT22;64340;48.534;-3.036;2023-05-01T14:03:48;18.50;58.70
75719;DHT22;64340;48.534;-3.036;2023-05-01T14:06:17;18.40;59.40
75719;DHT22;64340;48.534;-3.036;2023-05-01T14:08:50;18.50;59.10
75719;DHT22;64340;48.534;-3.036;2023-05-01T14:11:20;18.50;59.20
75719;DHT22;64340;48.534;-3.036;2023-05-01T14:13:57;18.50;59.40
75719;DHT22;64340;48.534;-3.036;2023-05-01T14:16:27;18.50;59.40
75719;DHT22;64340;48.534;-3.036;2023-05-01T14:18:55;18.50;59.30
75719;DHT22;64340;48.534;-3.036;2023-05-01T14:21:25;18.50;59.10
75719;DHT22;64340;48.534;-3.036;2023-05-01T14:23:55;18.50;59.10
75719;DHT22;64340;48.534;-3.036;2023-05-01T14:26:21;18.50;59.30
75719;DHT22;64340;48.534;-3.036;2023-05-01T14:28:51;18.50;60.20
75719;DHT22;64340;48.534;-3.036;2023-05-01T14:33:48;18.50;58.60
75719;DHT22;64340;48.534;-3.036;2023-05-01T14:36:17;18.50;59.30
75719;DHT22;64340;48.534;-3.036;2023-05-01T14:38:44;18.50;59.00
75719;DHT22;64340;48.534;-3.036;2023-05-01T14:41:15;18.50;59.40
75719;DHT22;64340;48.534;-3.036;2023-05-01T14:43:51;18.30;59.10
75719;DHT22;64340;48.534;-3.036;2023-05-01T14:46:28;18.10;58.90
75719;DHT22;64340;48.534;-3.036;2023-05-01T14:48:55;18.00;59.00
75719;DHT22;64340;48.534;-3.036;2023-05-01T14:51:21;18.00;59.50
75719;DHT22;64340;48.534;-3.036;2023-05-01T14:53:47;18.00;60.20
75719;DHT22;64340;48.534;-3.036;2023-05-01T14:56:14;17.90;60.30
75719;DHT22;64340;48.534;-3.036;2023-05-01T14:58:41;18.00;60.30
75719;DHT22;64340;48.534;-3.036;2023-05-01T15:01:07;18.10;60.70
75719;DHT22;64340;48.534;-3.036;2023-05-01T15:03:33;18.20;60.80
75719;DHT22;64340;48.534;-3.036;2023-05-01T15:06:07;18.20;61.20
75719;DHT22;64340;48.534;-3.036;2023-05-01T15:08:33;18.20;61.50
75719;DHT22;64340;48.534;-3.036;2023-05-01T15:10:59;18.20;61.70
75719;DHT22;64340;48.534;-3.036;2023-05-01T15:13:25;18.30;61.70
75719;DHT22;64340;48.534;-3.036;2023-05-01T15:15:52;18.30;62.00
75719;DHT22;64340;48.534;-3.036;2023-05-01T15:18:18;18.30;62.00
75719;DHT22;64340;48.534;-3.036;2023-05-01T15:20:45;18.30;62.20
75719;DHT22;64340;48.534;-3.036;2023-05-01T15:23:12;18.30;62.20
75719;DHT22;64340;48.534;-3.036;2023-05-01T15:25:38;18.40;62.20
75719;DHT22;64340;48.534;-3.036;2023-05-01T15:28:04;18.40;62.30
75719;DHT22;64340;48.534;-3.036;2023-05-01T15:30:30;18.40;62.50
75719;DHT22;64340;48.534;-3.036;2023-05-01T15:32:56;18.40;62.40
75719;DHT22;64340;48.534;-3.036;2023-05-01T15:35:22;18.40;62.60
75719;DHT22;64340;48.534;-3.036;2023-05-01T15:37:48;18.40;62.70
75719;DHT22;64340;48.534;-3.036;2023-05-01T15:40:15;18.40;62.60
75719;DHT22;64340;48.534;-3.036;2023-05-01T15:42:41;18.40;62.70
75719;DHT22;64340;48.534;-3.036;2023-05-01T15:45:07;18.40;62.60
75719;DHT22;64340;48.534;-3.036;2023-05-01T15:47:34;18.40;62.70
75719;DHT22;64340;48.534;-3.036;2023-05-01T15:50:00;18.50;62.80
75719;DHT22;64340;48.534;-3.036;2023-05-01T15:52:27;18.50;62.90
75719;DHT22;64340;48.534;-3.036;2023-05-01T15:54:53;18.50;62.90
75719;DHT22;64340;48.534;-3.036;2023-05-01T15:57:20;18.40;63.00
75719;DHT22;64340;48.534;-3.036;2023-05-01T15:59:46;18.40;63.00